createdAt,value
2019-01-10T00:04:14.652Z,4.87
2019-01-10T00:09:20.585Z,4.47
2019-01-10T00:14:22.682Z,4.23
2019-01-10T00:19:24.574Z,4.20
2019-01-10T00:24:26.553Z,4.50
2019-01-10T00:29:28.472Z,3.77
2019-01-10T00:34:31.771Z,4.10
2019-01-10T00:39:34.063Z,5.23
2019-01-10T00:44:36.240Z,8.10
2019-01-10T00:49:38.129Z,3.97
2019-01-10T00:54:40.012Z,5.73
2019-01-10T00:59:41.949Z,5.93
2019-01-10T01:04:43.938Z,4.63
2019-01-10T01:09:45.933Z,7.40
2019-01-10T01:14:48.207Z,7.23
2019-01-10T01:19:50.098Z,6.73
2019-01-10T01:24:51.982Z,4.77
2019-01-10T01:29:53.902Z,6.53
2019-01-10T01:34:55.798Z,6.67
2019-01-10T01:39:58.037Z,5.60
2019-01-10T01:45:00.223Z,6.50
2019-01-10T01:50:03.013Z,4.80
2019-01-10T01:55:05.460Z,4.93
2019-01-10T02:00:13.343Z,6.90
2019-01-10T02:05:15.854Z,7.07
2019-01-10T02:10:24.453Z,7.27
2019-01-10T02:15:27.557Z,6.17
2019-01-10T02:20:29.768Z,5.80
2019-01-10T02:25:31.697Z,6.77
2019-01-10T02:30:41.908Z,3.97
2019-01-10T02:35:37.519Z,7.13
2019-01-10T02:40:39.459Z,9.53
2019-01-10T02:45:41.641Z,6.33
2019-01-10T02:50:43.564Z,7.83
2019-01-10T02:55:45.466Z,7.10
2019-01-10T03:00:47.517Z,4.30
2019-01-10T03:05:51.459Z,7.53
2019-01-10T03:10:53.401Z,5.80
2019-01-10T03:15:55.328Z,7.70
2019-01-10T03:20:57.335Z,8.57
2019-01-10T03:25:59.251Z,7.50
2019-01-10T03:31:02.567Z,7.23
2019-01-10T03:36:04.883Z,8.03
2019-01-10T03:41:06.985Z,5.23
2019-01-10T03:46:08.965Z,8.00
2019-01-10T03:51:10.867Z,6.43
2019-01-10T03:56:12.864Z,8.23
2019-01-10T04:01:15.186Z,7.43
2019-01-10T04:06:17.072Z,11.93
2019-01-10T04:11:18.976Z,7.80
2019-01-10T04:16:20.927Z,9.90
2019-01-10T04:21:22.840Z,9.97
2019-01-10T04:26:24.749Z,11.10
2019-01-10T04:31:26.661Z,7.57
2019-01-10T04:36:30.208Z,8.07
2019-01-10T04:41:32.392Z,6.33
2019-01-10T04:46:34.334Z,8.60
2019-01-10T04:51:36.344Z,6.93
2019-01-10T04:56:38.259Z,5.30
2019-01-10T05:01:40.304Z,9.47
2019-01-10T05:06:42.208Z,7.43
2019-01-10T05:11:44.130Z,8.80
2019-01-10T05:16:46.089Z,6.63
2019-01-10T05:21:47.973Z,6.57
2019-01-10T05:26:50.051Z,7.80
2019-01-10T05:31:51.965Z,6.67
2019-01-10T05:36:53.877Z,8.30
2019-01-10T05:41:55.842Z,7.77
2019-01-10T05:46:57.753Z,10.63
2019-01-10T05:51:59.669Z,8.43
2019-01-10T05:57:01.691Z,9.93
2019-01-10T06:02:03.817Z,7.77
2019-01-10T06:07:05.728Z,7.20
2019-01-10T06:12:07.764Z,8.50
2019-01-10T06:17:09.662Z,7.33
2019-01-10T06:22:11.641Z,6.13
2019-01-10T06:27:13.566Z,7.07
2019-01-10T06:32:15.488Z,6.77
2019-01-10T06:37:17.416Z,5.37
2019-01-10T06:42:19.488Z,8.93
2019-01-10T06:47:21.373Z,8.03
2019-01-10T06:52:23.432Z,5.17
2019-01-10T06:57:25.354Z,6.13
2019-01-10T07:02:27.261Z,3.23
2019-01-10T07:07:29.164Z,4.13
2019-01-10T07:12:31.241Z,3.13
2019-01-10T07:17:34.183Z,2.43
2019-01-10T07:22:42.238Z,3.27
2019-01-10T07:27:44.287Z,6.10
2019-01-10T07:32:46.206Z,3.67
2019-01-10T07:37:50.322Z,2.83
2019-01-10T07:42:53.390Z,3.60
2019-01-10T07:47:55.416Z,3.07
2019-01-10T07:52:57.549Z,4.40
2019-01-10T07:57:59.680Z,4.77
2019-01-10T08:03:01.787Z,4.83
2019-01-10T08:08:05.061Z,4.17
2019-01-10T08:13:07.287Z,2.77
2019-01-10T08:18:09.283Z,8.90
2019-01-10T08:23:11.196Z,3.80
2019-01-10T08:28:13.217Z,3.50
2019-01-10T08:33:15.217Z,9.63
2019-01-10T08:38:17.430Z,5.60
2019-01-10T08:43:19.659Z,4.57
2019-01-10T08:48:21.850Z,3.20
2019-01-10T08:53:25.971Z,5.23
2019-01-10T08:58:28.217Z,4.53
2019-01-10T09:03:30.513Z,4.10
2019-01-10T09:08:32.758Z,4.50
2019-01-10T09:13:34.918Z,4.60
2019-01-10T09:18:37.210Z,3.80
2019-01-10T09:23:39.339Z,6.43
2019-01-10T09:28:41.883Z,6.30
2019-01-10T09:33:45.658Z,3.00
2019-01-10T09:38:47.907Z,5.03
2019-01-10T09:43:50.281Z,5.57
2019-01-10T09:48:52.528Z,3.10
2019-01-10T09:53:54.909Z,7.50
2019-01-10T09:58:57.020Z,5.73
2019-01-10T10:03:59.377Z,5.00
2019-01-10T10:09:05.264Z,5.50
2019-01-10T10:14:07.728Z,3.83
2019-01-10T10:19:10.081Z,6.77
2019-01-10T10:24:12.467Z,5.00
2019-01-10T10:29:14.853Z,4.00
2019-01-10T10:34:17.070Z,4.37
2019-01-10T10:39:19.479Z,4.60
2019-01-10T10:44:21.828Z,3.73
2019-01-10T10:49:23.966Z,3.13
2019-01-10T10:54:26.459Z,3.57
2019-01-10T10:59:28.612Z,5.33
2019-01-10T11:04:31.597Z,5.97
2019-01-10T11:09:34.018Z,5.93
2019-01-10T11:14:36.654Z,3.43
2019-01-10T11:19:38.989Z,3.83
2019-01-10T11:24:42.366Z,4.10
2019-01-10T11:29:45.520Z,4.97
2019-01-10T11:34:47.844Z,4.70
2019-01-10T11:39:50.349Z,3.13
2019-01-10T11:44:52.954Z,3.87
2019-01-10T11:49:55.356Z,3.47
2019-01-10T11:54:57.766Z,3.40
2019-01-10T12:00:00.198Z,3.00
2019-01-10T12:05:06.122Z,4.67
2019-01-10T12:10:09.324Z,2.83
2019-01-10T12:15:12.126Z,4.67
2019-01-10T12:20:16.274Z,3.40
2019-01-10T12:25:19.024Z,4.67
2019-01-10T12:30:24.212Z,3.20
2019-01-10T12:35:26.718Z,4.80
2019-01-10T12:40:28.610Z,4.53
2019-01-10T12:45:32.055Z,2.77
2019-01-10T12:50:34.075Z,4.07
2019-01-10T12:55:36.597Z,4.70
2019-01-10T13:00:38.538Z,8.73
2019-01-10T13:05:40.536Z,3.53
2019-01-10T13:10:42.628Z,4.70
2019-01-10T13:15:44.681Z,3.43
2019-01-10T13:20:46.590Z,2.77
2019-01-10T13:25:48.540Z,3.17
2019-01-10T13:30:51.554Z,1.80
2019-01-10T13:35:53.546Z,2.33
2019-01-10T13:40:55.464Z,1.93
2019-01-10T13:45:57.521Z,2.63
2019-01-10T13:50:59.528Z,1.83
2019-01-10T13:56:03.020Z,2.03
2019-01-10T14:01:05.426Z,1.27
2019-01-10T14:06:07.431Z,2.27
2019-01-10T14:11:09.433Z,1.60
2019-01-10T14:16:11.590Z,2.33
2019-01-10T14:21:13.709Z,1.73
2019-01-10T14:26:15.876Z,1.33
2019-01-10T14:31:17.936Z,2.43
2019-01-10T14:36:19.849Z,1.43
2019-01-10T14:41:22.281Z,1.43
2019-01-10T14:46:25.606Z,1.83
2019-01-10T14:51:27.922Z,2.50
2019-01-10T14:56:29.997Z,4.10
2019-01-10T15:01:32.112Z,5.13
2019-01-10T15:06:34.057Z,2.20
2019-01-10T15:11:37.416Z,1.70
2019-01-10T15:16:39.288Z,2.03
2019-01-10T15:21:41.480Z,1.27
2019-01-10T15:26:43.561Z,3.57
2019-01-10T15:31:45.492Z,2.60
2019-01-10T15:36:47.433Z,1.93
2019-01-10T15:41:50.860Z,1.70
2019-01-10T15:46:52.772Z,2.33
2019-01-10T15:51:54.700Z,3.27
2019-01-10T15:57:00.708Z,3.20
2019-01-10T16:02:00.481Z,2.40
2019-01-10T16:07:02.514Z,1.80
2019-01-10T16:12:04.516Z,1.93
2019-01-10T16:17:06.419Z,2.00
2019-01-10T16:22:08.651Z,2.37
2019-01-10T16:27:10.582Z,3.67
2019-01-10T16:32:12.541Z,3.20
2019-01-10T16:37:14.573Z,4.40
2019-01-10T16:42:16.585Z,5.40
2019-01-10T16:47:18.593Z,3.67
2019-01-10T16:52:20.575Z,6.33
2019-01-10T16:57:22.617Z,6.17
2019-01-10T17:02:24.600Z,8.33
2019-01-10T17:07:27.809Z,6.93
2019-01-10T17:12:29.700Z,5.73
2019-01-10T17:17:37.563Z,7.23
2019-01-10T17:22:35.464Z,7.13
2019-01-10T17:27:37.604Z,8.03
2019-01-10T17:32:39.704Z,8.93
2019-01-10T17:37:41.845Z,8.27
2019-01-10T17:42:44.213Z,9.17
2019-01-10T17:47:46.953Z,7.77
2019-01-10T17:52:48.885Z,9.77
2019-01-10T17:57:51.023Z,7.63
2019-01-10T18:02:52.978Z,9.37
2019-01-10T18:07:56.113Z,12.07
2019-01-10T18:12:58.022Z,10.80
2019-01-10T18:17:59.911Z,10.20
2019-01-10T18:23:02.232Z,12.83
2019-01-10T18:28:04.448Z,10.97
2019-01-10T18:33:06.392Z,10.20
2019-01-10T18:38:08.501Z,7.43
2019-01-10T18:43:10.534Z,10.97
2019-01-10T18:48:12.480Z,9.93
2019-01-10T18:53:14.467Z,10.07
2019-01-10T18:58:16.473Z,9.93
2019-01-10T19:03:18.404Z,9.63
2019-01-10T19:08:20.404Z,7.83
2019-01-10T19:13:22.317Z,9.73
2019-01-10T19:18:24.257Z,10.60
2019-01-10T19:23:26.158Z,9.17
2019-01-10T19:28:28.211Z,9.20
2019-01-10T19:33:30.242Z,8.50
2019-01-10T19:38:32.353Z,9.03
2019-01-10T19:43:34.332Z,8.67
2019-01-10T19:48:36.361Z,8.20
2019-01-10T19:54:12.204Z,8.37
2019-01-10T19:59:14.165Z,8.83
2019-01-10T20:04:16.106Z,8.20
2019-01-10T20:09:18.104Z,9.60
2019-01-10T20:14:20.132Z,9.80
2019-01-10T20:19:22.028Z,10.70
2019-01-10T20:24:23.941Z,9.27
2019-01-10T20:29:25.877Z,10.97
2019-01-10T20:34:27.793Z,8.73
2019-01-10T20:39:29.668Z,10.50
2019-01-10T20:44:31.618Z,8.10
2019-01-10T20:49:33.508Z,8.30
2019-01-10T20:54:35.633Z,9.17
2019-01-10T20:59:37.647Z,8.67
2019-01-10T21:04:39.648Z,11.20
2019-01-10T21:09:41.881Z,9.60
2019-01-10T21:14:43.780Z,8.00
2019-01-10T21:19:45.777Z,8.53
2019-01-10T21:24:47.748Z,10.20
2019-01-10T21:29:50.047Z,9.27
2019-01-10T21:34:52.117Z,9.23
2019-01-10T21:39:54.013Z,8.07
2019-01-10T21:44:56.117Z,8.03
2019-01-10T21:49:58.138Z,9.00
2019-01-10T21:55:00.020Z,12.13
2019-01-10T22:00:02.059Z,11.47
2019-01-10T22:05:05.368Z,9.77
2019-01-10T22:10:08.644Z,10.77
2019-01-10T22:15:11.197Z,10.50
2019-01-10T22:20:13.817Z,10.60
2019-01-10T22:25:15.945Z,9.43
2019-01-10T22:30:20.007Z,10.20
2019-01-10T22:35:22.181Z,10.60
2019-01-10T22:40:24.209Z,8.17
2019-01-10T22:45:26.185Z,10.33
2019-01-10T22:50:30.735Z,11.77
2019-01-10T22:55:32.820Z,10.13
2019-01-10T23:01:08.991Z,11.13
2019-01-10T23:06:11.070Z,11.83
2019-01-10T23:11:18.453Z,10.57
2019-01-10T23:16:20.666Z,11.60
2019-01-10T23:21:22.792Z,10.40
2019-01-10T23:26:24.693Z,11.70
2019-01-10T23:31:26.628Z,11.13
2019-01-10T23:36:28.911Z,12.50
2019-01-10T23:41:30.881Z,11.87
2019-01-10T23:46:32.891Z,11.23
2019-01-10T23:51:34.999Z,12.10
2019-01-10T23:56:37.103Z,12.13
